createdAt,value
2023-02-24T00:01:25.063Z,100691.31
2023-02-24T00:03:57.489Z,100695.19
2023-02-24T00:06:37.474Z,100683.09
2023-02-24T00:09:12.062Z,100664.06
2023-02-24T00:11:49.005Z,100677.75
2023-02-24T00:14:19.850Z,100682.03
2023-02-24T00:16:50.796Z,100681.91
2023-02-24T00:19:24.034Z,100647.72
2023-02-24T00:21:56.219Z,100671.41
2023-02-24T00:24:26.424Z,100636.31
2023-02-24T00:27:00.730Z,100676.91
2023-02-24T00:29:32.628Z,100669.59
2023-02-24T00:32:08.519Z,100663.88
2023-02-24T00:34:40.425Z,100658.16
2023-02-24T00:37:10.680Z,100668.81
2023-02-24T00:39:41.969Z,100654.25
2023-02-24T00:42:17.420Z,100637.13
2023-02-24T00:44:49.860Z,100614.19
2023-02-24T00:47:20.596Z,100654.41
2023-02-24T00:49:51.396Z,100642.50
2023-02-24T00:52:23.641Z,100613.50
2023-02-24T00:54:53.669Z,100645.00
2023-02-24T00:57:27.084Z,100632.16
2023-02-24T00:59:59.375Z,100624.88
2023-02-24T01:02:29.985Z,100631.09
2023-02-24T01:05:01.307Z,100616.88
2023-02-24T01:07:31.272Z,100630.75
2023-02-24T01:10:01.777Z,100638.97
2023-02-24T01:12:50.003Z,100632.53
2023-02-24T01:15:22.263Z,100630.59
2023-02-24T01:17:52.427Z,100626.66
2023-02-24T01:20:22.776Z,100622.91
2023-02-24T01:22:57.771Z,100620.78
2023-02-24T01:25:27.978Z,100611.53
2023-02-24T01:28:00.614Z,100607.44
2023-02-24T01:30:31.432Z,100607.28
2023-02-24T01:33:02.000Z,100608.19
2023-02-24T01:35:35.178Z,100605.69
2023-02-24T01:38:05.995Z,100606.59
2023-02-24T01:40:38.424Z,100579.16
2023-02-24T01:43:13.818Z,100597.84
2023-02-24T01:45:44.211Z,100599.44
2023-02-24T01:48:17.416Z,100577.03
2023-02-24T01:50:48.603Z,100573.47
2023-02-24T01:53:18.723Z,100576.81
2023-02-24T01:55:50.953Z,100570.22
2023-02-24T01:58:28.165Z,100578.22
2023-02-24T02:00:58.916Z,100571.44
2023-02-24T02:03:32.748Z,100557.56
2023-02-24T02:06:11.271Z,100557.38
2023-02-24T02:08:43.447Z,100555.25
2023-02-24T02:11:20.577Z,100541.75
2023-02-24T02:13:55.289Z,100550.28
2023-02-24T02:16:56.158Z,100549.19
2023-02-24T02:19:57.393Z,100552.75
2023-02-24T02:23:02.357Z,100534.28
2023-02-24T02:25:51.625Z,100523.63
2023-02-24T02:28:54.152Z,100528.78
2023-02-24T02:31:51.966Z,100512.03
2023-02-24T02:34:35.912Z,100486.09
2023-02-24T02:37:14.852Z,100508.84
2023-02-24T02:39:58.982Z,100502.25
2023-02-24T02:42:32.931Z,100512.03
2023-02-24T02:45:11.862Z,100513.44
2023-02-24T02:47:48.480Z,100480.75
2023-02-24T02:50:27.541Z,100479.47
2023-02-24T02:53:03.240Z,100470.28
2023-02-24T02:55:41.871Z,100480.56
2023-02-24T02:58:17.593Z,100449.97
2023-02-24T03:01:02.069Z,100479.66
2023-02-24T03:03:36.297Z,100481.97
2023-02-24T03:06:17.257Z,100481.28
2023-02-24T03:08:55.685Z,100454.25
2023-02-24T03:11:30.018Z,100472.41
2023-02-24T03:14:03.210Z,100431.53
2023-02-24T03:16:36.315Z,100467.41
2023-02-24T03:19:11.305Z,100461.72
2023-02-24T03:21:47.269Z,100418.53
2023-02-24T03:24:18.309Z,100438.28
2023-02-24T03:26:56.384Z,100448.53
2023-02-24T03:29:36.839Z,100415.34
2023-02-24T03:32:12.522Z,100434.31
2023-02-24T03:34:52.174Z,100455.16
2023-02-24T03:37:30.458Z,100398.78
2023-02-24T03:40:08.165Z,100414.44
2023-02-24T03:42:40.348Z,100394.34
2023-02-24T03:45:14.834Z,100427.41
2023-02-24T03:47:46.973Z,100428.44
2023-02-24T03:50:20.267Z,100419.38
2023-02-24T03:53:09.774Z,100416.88
2023-02-24T03:55:48.661Z,100419.53
2023-02-24T03:58:31.265Z,100411.53
2023-02-24T04:01:10.193Z,100389.34
2023-02-24T04:03:52.720Z,100421.50
2023-02-24T04:06:39.278Z,100412.28
2023-02-24T04:09:20.322Z,100404.09
2023-02-24T04:12:14.508Z,100408.38
2023-02-24T04:14:54.081Z,100415.31
2023-02-24T04:17:32.924Z,100416.38
2023-02-24T04:20:13.691Z,100408.16
2023-02-24T04:22:51.723Z,100416.53
2023-02-24T04:25:27.153Z,100413.34
2023-02-24T04:28:03.211Z,100410.34
2023-02-24T04:30:37.259Z,100407.47
2023-02-24T04:33:10.267Z,100398.19
2023-02-24T04:35:40.804Z,100395.38
2023-02-24T04:38:11.342Z,100398.19
2023-02-24T04:40:45.463Z,100391.09
2023-02-24T04:43:15.736Z,100390.56
2023-02-24T04:45:45.907Z,100382.03
2023-02-24T04:48:15.955Z,100379.19
2023-02-24T04:50:46.852Z,100343.66
2023-02-24T04:53:19.230Z,100368.09
2023-02-24T04:55:52.516Z,100361.03
2023-02-24T04:58:27.606Z,100358.00
2023-02-24T05:00:58.780Z,100351.94
2023-02-24T05:03:30.750Z,100338.59
2023-02-24T05:06:03.459Z,100334.16
2023-02-24T05:08:34.184Z,100331.13
2023-02-24T05:11:07.281Z,100327.38
2023-02-24T05:13:37.880Z,100324.16
2023-02-24T05:16:12.850Z,100324.69
2023-02-24T05:18:44.876Z,100287.44
2023-02-24T05:21:38.386Z,100310.31
2023-02-24T05:24:11.367Z,100295.56
2023-02-24T05:29:46.935Z,100289.28
2023-02-24T05:32:17.497Z,100282.00
2023-02-24T05:34:47.563Z,100281.97
2023-02-24T05:37:17.511Z,100274.69
2023-02-24T05:39:47.526Z,100277.34
2023-02-24T05:42:20.019Z,100270.56
2023-02-24T05:44:50.566Z,100260.97
2023-02-24T05:47:21.401Z,100260.28
2023-02-24T05:49:54.372Z,100254.91
2023-02-24T05:52:24.278Z,100248.13
2023-02-24T05:54:55.198Z,100243.00
2023-02-24T05:57:33.307Z,100237.09
2023-02-24T06:00:15.947Z,100238.53
2023-02-24T06:02:50.591Z,100227.19
2023-02-24T06:05:29.105Z,100229.16
2023-02-24T06:08:05.018Z,100222.88
2023-02-24T06:10:36.475Z,100215.25
2023-02-24T06:13:13.503Z,100206.56
2023-02-24T06:15:50.349Z,100210.44
2023-02-24T06:18:21.582Z,100201.16
2023-02-24T06:20:54.076Z,100202.97
2023-02-24T06:23:26.805Z,100175.63
2023-02-24T06:25:57.923Z,100183.69
2023-02-24T06:28:31.912Z,100180.31
2023-02-24T06:31:06.895Z,100188.84
2023-02-24T06:33:38.186Z,100180.63
2023-02-24T06:36:09.293Z,100174.41
2023-02-24T06:38:40.239Z,100174.78
2023-02-24T06:41:11.036Z,100164.31
2023-02-24T06:43:48.012Z,100167.53
2023-02-24T06:46:19.180Z,100160.69
2023-02-24T06:48:49.387Z,100166.63
2023-02-24T06:51:19.789Z,100161.59
2023-02-24T06:53:50.492Z,100156.50
2023-02-24T06:56:20.887Z,100154.72
2023-02-24T06:58:55.470Z,100155.28
2023-02-24T07:01:29.241Z,100148.59
2023-02-24T07:04:18.005Z,100155.84
2023-02-24T07:06:52.419Z,100149.28
2023-02-24T07:09:25.370Z,100149.97
2023-02-24T07:11:57.005Z,100144.97
2023-02-24T07:14:31.761Z,100135.00
2023-02-24T07:17:02.292Z,100134.31
2023-02-24T07:19:34.878Z,100120.66
2023-02-24T07:22:06.282Z,100115.31
2023-02-24T07:24:40.764Z,100123.09
2023-02-24T07:27:22.664Z,100115.81
2023-02-24T07:29:55.340Z,100117.56
2023-02-24T07:32:28.211Z,100116.28
2023-02-24T07:34:59.650Z,100107.22
2023-02-24T07:37:31.849Z,100100.78
2023-02-24T07:40:02.541Z,100097.56
2023-02-24T07:42:35.486Z,100093.47
2023-02-24T07:45:13.786Z,100079.94
2023-02-24T07:47:44.117Z,100085.81
2023-02-24T07:50:18.628Z,100077.84
2023-02-24T07:52:49.101Z,100072.88
2023-02-24T07:55:19.532Z,100047.31
2023-02-24T07:57:51.831Z,100068.53
2023-02-24T08:00:28.399Z,100061.22
2023-02-24T08:03:00.635Z,100064.94
2023-02-24T08:05:30.698Z,100054.25
2023-02-24T08:08:00.678Z,100053.75
2023-02-24T08:10:36.966Z,100030.88
2023-02-24T08:13:07.171Z,100041.50
2023-02-24T08:15:39.672Z,100042.25
2023-02-24T08:18:09.610Z,100046.84
2023-02-24T08:20:52.489Z,100028.66
2023-02-24T08:23:23.613Z,100025.50
2023-02-24T08:25:54.561Z,100034.00
2023-02-24T08:28:27.020Z,100024.00
2023-02-24T08:30:59.608Z,99992.53
2023-02-24T08:33:30.664Z,100017.09
2023-02-24T08:36:03.689Z,100010.75
2023-02-24T08:38:52.259Z,100016.81
2023-02-24T08:41:44.106Z,100015.63
2023-02-24T08:44:19.008Z,100004.59
2023-02-24T08:46:54.552Z,100007.47
2023-02-24T08:49:25.900Z,100004.22
2023-02-24T08:51:55.782Z,100009.00
2023-02-24T08:54:27.908Z,99987.94
2023-02-24T08:57:08.240Z,100003.75
2023-02-24T08:59:49.880Z,99984.25
2023-02-24T09:02:27.600Z,99977.94
2023-02-24T09:05:00.061Z,99989.84
2023-02-24T09:07:35.513Z,99972.19
2023-02-24T09:10:11.640Z,99970.97
2023-02-24T09:12:42.605Z,99963.88
2023-02-24T09:15:15.483Z,99952.50
2023-02-24T09:18:07.315Z,99953.34
2023-02-24T09:20:49.905Z,99958.81
2023-02-24T09:23:30.041Z,99936.50
2023-02-24T09:26:11.248Z,99948.34
2023-02-24T09:28:48.828Z,99942.94
2023-02-24T09:31:20.230Z,99939.16
2023-02-24T09:33:53.757Z,99936.28
2023-02-24T09:36:28.196Z,99935.41
2023-02-24T09:39:15.095Z,99900.22
2023-02-24T09:41:57.042Z,99921.59
2023-02-24T09:44:33.415Z,99914.97
2023-02-24T09:47:14.112Z,99911.72
2023-02-24T09:49:56.322Z,99898.25
2023-02-24T09:52:39.977Z,99890.69
2023-02-24T09:55:31.043Z,99887.34
2023-02-24T09:58:22.420Z,99878.19
2023-02-24T10:01:21.115Z,99883.72
2023-02-24T10:04:14.872Z,99897.13
2023-02-24T10:06:58.324Z,99882.31
2023-02-24T10:09:34.691Z,99884.41
2023-02-24T10:12:11.770Z,99869.09
2023-02-24T10:14:53.790Z,99848.25
2023-02-24T10:17:30.812Z,99876.28
2023-02-24T10:20:14.047Z,99866.19
2023-02-24T10:22:55.260Z,99849.31
2023-02-24T10:25:36.437Z,99852.97
2023-02-24T10:28:15.338Z,99851.44
2023-02-24T10:31:04.164Z,99837.63
2023-02-24T10:33:39.220Z,99841.81
2023-02-24T10:36:12.439Z,99836.44
2023-02-24T10:38:45.686Z,99822.59
2023-02-24T10:41:17.281Z,99824.44
2023-02-24T10:43:57.433Z,99820.81
2023-02-24T10:46:42.743Z,99817.47
2023-02-24T10:49:16.940Z,99808.72
2023-02-24T10:51:55.880Z,99800.38
2023-02-24T10:54:53.127Z,99801.16
2023-02-24T10:57:42.490Z,99786.22
2023-02-24T11:00:51.917Z,99777.88
2023-02-24T11:03:36.366Z,99768.50
2023-02-24T11:06:20.371Z,99760.63
2023-02-24T11:09:19.130Z,99754.22
2023-02-24T11:12:04.665Z,99736.13
2023-02-24T11:14:48.947Z,99743.75
2023-02-24T11:17:27.217Z,99733.22
2023-02-24T11:20:10.906Z,99731.63
2023-02-24T11:22:44.419Z,99718.06
2023-02-24T11:25:25.963Z,99716.03
2023-02-24T11:27:59.760Z,99711.38
2023-02-24T11:30:42.675Z,99695.28
2023-02-24T11:33:22.986Z,99694.00
2023-02-24T11:36:05.386Z,99688.72
2023-02-24T11:38:43.735Z,99696.00
2023-02-24T11:41:22.458Z,99669.59
2023-02-24T11:44:02.892Z,99671.06
2023-02-24T11:46:40.434Z,99674.44
2023-02-24T11:49:24.977Z,99670.75
2023-02-24T11:51:55.978Z,99668.34
2023-02-24T11:54:28.496Z,99651.19
2023-02-24T11:57:00.962Z,99651.13
2023-02-24T11:59:41.159Z,99640.91
2023-02-24T12:02:22.094Z,99643.72
2023-02-24T12:04:59.889Z,99633.91
2023-02-24T12:07:35.859Z,99620.41
2023-02-24T12:10:16.774Z,99622.47
2023-02-24T12:12:53.944Z,99619.47
2023-02-24T12:15:31.375Z,99605.19
2023-02-24T12:18:09.098Z,99613.41
2023-02-24T12:20:43.266Z,99600.84
2023-02-24T12:23:18.701Z,99605.19
2023-02-24T12:25:59.406Z,99613.94
2023-02-24T12:28:48.844Z,99609.84
2023-02-24T12:31:30.611Z,99608.06
2023-02-24T12:34:15.717Z,99598.22
2023-02-24T12:37:09.462Z,99595.34
2023-02-24T12:39:50.406Z,99591.03
2023-02-24T12:42:29.106Z,99591.59
2023-02-24T12:45:06.740Z,99594.47
2023-02-24T12:48:01.273Z,99590.41
2023-02-24T12:50:47.232Z,99589.75
2023-02-24T12:53:25.976Z,99588.50
2023-02-24T12:56:06.415Z,99568.78
2023-02-24T12:58:40.072Z,99563.47
2023-02-24T13:01:18.312Z,99564.84
2023-02-24T13:04:10.868Z,99561.63
2023-02-24T13:06:55.922Z,99534.75
2023-02-24T13:09:38.646Z,99560.41
2023-02-24T13:12:18.577Z,99552.63
2023-02-24T13:14:50.061Z,99548.88
2023-02-24T13:17:23.472Z,99545.97
2023-02-24T13:19:57.716Z,99526.50
2023-02-24T13:25:34.080Z,99527.41
2023-02-24T13:28:06.108Z,99516.03
2023-02-24T13:30:41.076Z,99504.00
2023-02-24T13:33:27.681Z,99495.28
2023-02-24T13:36:13.670Z,99514.31
2023-02-24T13:38:46.011Z,99499.94
2023-02-24T13:41:38.749Z,99498.00
2023-02-24T13:44:26.333Z,99502.22
2023-02-24T13:47:16.855Z,99463.66
2023-02-24T13:49:59.162Z,99492.03
2023-02-24T13:52:47.031Z,99455.66
2023-02-24T13:55:44.241Z,99486.47
2023-02-24T13:58:44.124Z,99483.31
2023-02-24T14:01:16.316Z,99478.47
2023-02-24T14:03:49.916Z,99473.63
2023-02-24T14:06:27.494Z,99474.84
2023-02-24T14:09:03.576Z,99474.38
2023-02-24T14:11:38.785Z,99470.03
2023-02-24T14:14:09.048Z,99460.06
2023-02-24T14:16:41.970Z,99461.22
2023-02-24T14:19:17.429Z,99449.09
2023-02-24T14:21:54.999Z,99443.09
2023-02-24T14:24:32.017Z,99422.16
2023-02-24T14:27:04.340Z,99427.00
2023-02-24T14:29:44.207Z,99424.22
2023-02-24T14:32:22.821Z,99424.22
2023-02-24T14:34:53.767Z,99427.59
2023-02-24T14:37:26.897Z,99421.13
2023-02-24T14:40:05.993Z,99414.53
2023-02-24T14:42:36.373Z,99417.47
2023-02-24T14:45:18.928Z,99408.38
2023-02-24T14:47:49.069Z,99395.50
2023-02-24T14:50:21.442Z,99405.31
2023-02-24T14:52:55.954Z,99407.94
2023-02-24T14:55:32.433Z,99391.84
2023-02-24T14:58:09.449Z,99369.13
2023-02-24T15:00:47.193Z,99381.56
2023-02-24T15:03:29.882Z,99374.97
2023-02-24T15:06:14.043Z,99387.59
2023-02-24T15:09:08.214Z,99372.94
2023-02-24T15:11:49.642Z,99363.41
2023-02-24T15:14:42.431Z,99377.03
2023-02-24T15:17:23.939Z,99350.81
2023-02-24T15:20:06.637Z,99367.06
2023-02-24T15:22:43.344Z,99338.78
2023-02-24T15:25:37.161Z,99344.34
2023-02-24T15:28:33.816Z,99296.44
2023-02-24T15:31:11.766Z,99345.09
2023-02-24T15:33:43.899Z,99351.50
2023-02-24T15:36:19.389Z,99329.25
2023-02-24T15:38:58.875Z,99306.81
2023-02-24T15:44:41.004Z,99325.56
2023-02-24T15:47:29.064Z,99312.34
2023-02-24T15:50:08.656Z,99326.28
2023-02-24T15:52:51.833Z,99320.72
2023-02-24T15:55:29.346Z,99309.31
2023-02-24T15:58:11.945Z,99293.63
2023-02-24T16:00:47.851Z,99319.72
2023-02-24T16:03:26.861Z,99312.38
2023-02-24T16:06:00.413Z,99306.50
2023-02-24T16:08:33.602Z,99311.50
2023-02-24T16:11:11.074Z,99296.28
2023-02-24T16:13:50.981Z,99302.09
2023-02-24T16:16:39.059Z,99301.97
2023-02-24T16:19:11.568Z,99288.78
2023-02-24T16:21:42.621Z,99270.78
2023-02-24T16:24:20.020Z,99292.31
2023-02-24T16:26:56.868Z,99281.59
2023-02-24T16:29:28.794Z,99282.88
2023-02-24T16:32:06.104Z,99285.56
2023-02-24T16:34:37.454Z,99250.09
2023-02-24T16:37:15.283Z,99283.91
2023-02-24T16:39:51.178Z,99271.59
2023-02-24T16:42:29.323Z,99275.28
2023-02-24T16:45:17.095Z,99268.66
2023-02-24T16:47:52.955Z,99242.91
2023-02-24T16:50:30.416Z,99263.25
2023-02-24T16:53:02.636Z,99250.22
2023-02-24T16:55:41.146Z,99260.63
2023-02-24T16:58:13.049Z,99254.88
2023-02-24T17:00:46.497Z,99258.66
2023-02-24T17:03:23.715Z,99260.13
2023-02-24T17:05:54.167Z,99258.34
2023-02-24T17:08:25.422Z,99244.28
2023-02-24T17:10:55.493Z,99242.22
2023-02-24T17:13:25.679Z,99249.53
2023-02-24T17:15:57.500Z,99243.66
2023-02-24T17:18:30.185Z,99254.50
2023-02-24T17:21:00.314Z,99256.13
2023-02-24T17:23:30.325Z,99257.75
2023-02-24T17:26:03.175Z,99254.66
2023-02-24T17:28:33.548Z,99252.91
2023-02-24T17:31:06.348Z,99250.81
2023-02-24T17:33:43.329Z,99243.06
2023-02-24T17:36:13.443Z,99257.00
2023-02-24T17:38:43.248Z,99268.00
2023-02-24T17:41:13.082Z,99267.72
2023-02-24T17:43:43.061Z,99258.94
2023-02-24T17:46:12.895Z,99251.91
2023-02-24T17:48:45.461Z,99263.34
2023-02-24T17:51:16.878Z,99265.84
2023-02-24T17:53:48.337Z,99271.00
2023-02-24T17:56:21.043Z,99267.63
2023-02-24T17:58:51.914Z,99270.88
2023-02-24T18:01:23.849Z,99271.63
2023-02-24T18:03:58.124Z,99270.75
2023-02-24T18:06:27.832Z,99275.00
2023-02-24T18:08:57.823Z,99274.56
2023-02-24T18:11:27.724Z,99272.06
2023-02-24T18:14:01.442Z,99270.44
2023-02-24T18:16:31.615Z,99271.75
2023-02-24T18:19:05.311Z,99278.22
2023-02-24T18:21:35.616Z,99270.16
2023-02-24T18:24:06.024Z,99259.03
2023-02-24T18:26:36.106Z,99273.66
2023-02-24T18:29:08.796Z,99279.69
2023-02-24T18:31:39.130Z,99278.34
2023-02-24T18:34:11.886Z,99290.22
2023-02-24T18:36:41.885Z,99292.53
2023-02-24T18:39:15.011Z,99296.31
2023-02-24T18:41:45.675Z,99294.28
2023-02-24T18:44:15.962Z,99294.09
2023-02-24T18:46:48.222Z,99289.09
2023-02-24T18:49:20.995Z,99284.72
2023-02-24T18:51:51.533Z,99292.22
2023-02-24T18:54:21.479Z,99287.38
2023-02-24T18:56:51.617Z,99287.38
2023-02-24T18:59:21.653Z,99296.72
2023-02-24T19:01:51.611Z,99292.63
2023-02-24T19:04:24.308Z,99291.00
2023-02-24T19:06:54.734Z,99296.28
2023-02-24T19:09:24.783Z,99295.25
2023-02-24T19:11:55.006Z,99298.34
2023-02-24T19:14:25.265Z,99294.72
2023-02-24T19:16:55.292Z,99307.44
2023-02-24T19:19:27.925Z,99293.97
2023-02-24T19:21:57.750Z,99290.88
2023-02-24T19:24:28.152Z,99286.81
2023-02-24T19:26:59.094Z,99272.38
2023-02-24T19:29:29.139Z,99293.78
2023-02-24T19:31:59.478Z,99290.72
2023-02-24T19:34:32.141Z,99286.59
2023-02-24T19:37:02.166Z,99295.41
2023-02-24T19:39:32.159Z,99299.22
2023-02-24T19:42:02.109Z,99290.16
2023-02-24T19:44:32.105Z,99297.91
2023-02-24T19:47:01.893Z,99287.94
2023-02-24T19:49:34.394Z,99306.25
2023-02-24T19:52:04.344Z,99293.50
2023-02-24T19:54:34.454Z,99294.09
2023-02-24T19:57:08.816Z,99299.66
2023-02-24T19:59:39.864Z,99289.53
2023-02-24T20:02:10.435Z,99292.47
2023-02-24T20:04:43.214Z,99282.81
2023-02-24T20:07:13.648Z,99301.28
2023-02-24T20:09:45.444Z,99303.06
2023-02-24T20:12:17.405Z,99293.81
2023-02-24T20:14:47.307Z,99304.22
2023-02-24T20:17:17.741Z,99295.56
2023-02-24T20:19:50.354Z,99301.00
2023-02-24T20:22:20.320Z,99304.22
2023-02-24T20:24:50.499Z,99285.63
2023-02-24T20:27:20.680Z,99300.09
2023-02-24T20:29:53.406Z,99295.09
2023-02-24T20:32:23.661Z,99304.81
2023-02-24T20:34:56.844Z,99300.25
2023-02-24T20:37:28.540Z,99297.44
2023-02-24T20:39:58.441Z,99289.25
2023-02-24T20:42:28.401Z,99301.41
2023-02-24T20:44:58.292Z,99304.50
2023-02-24T20:47:28.186Z,99317.53
2023-02-24T20:50:00.784Z,99312.81
2023-02-24T20:52:34.325Z,99315.50
2023-02-24T20:55:04.401Z,99306.25
2023-02-24T20:57:34.334Z,99309.88
2023-02-24T21:00:07.994Z,99309.63
2023-02-24T21:02:40.391Z,99307.84
2023-02-24T21:05:22.169Z,99293.19
2023-02-24T21:07:52.940Z,99307.00
2023-02-24T21:10:26.047Z,99307.13
2023-02-24T21:12:56.210Z,99308.28
2023-02-24T21:15:26.290Z,99314.88
2023-02-24T21:17:56.194Z,99304.19
2023-02-24T21:20:28.681Z,99292.88
2023-02-24T21:22:58.624Z,99301.53
2023-02-24T21:25:28.539Z,99297.44
2023-02-24T21:27:58.652Z,99291.88
2023-02-24T21:30:29.181Z,99301.25
2023-02-24T21:33:00.058Z,99298.31
2023-02-24T21:35:32.761Z,99293.34
2023-02-24T21:38:03.112Z,99306.25
2023-02-24T21:40:32.902Z,99289.25
2023-02-24T21:43:02.813Z,99304.22
2023-02-24T21:45:33.206Z,99300.97
2023-02-24T21:48:03.045Z,99305.97
2023-02-24T21:50:37.023Z,99313.56
2023-02-24T21:53:07.025Z,99317.97
2023-02-24T21:55:38.696Z,99311.50
2023-02-24T21:58:08.819Z,99313.00
2023-02-24T22:00:38.694Z,99313.75
2023-02-24T22:03:08.736Z,99324.72
2023-02-24T22:05:41.279Z,99325.88
2023-02-24T22:08:11.233Z,99313.88
2023-02-24T22:10:41.090Z,99304.50
2023-02-24T22:13:10.922Z,99294.25
2023-02-24T22:15:41.756Z,99307.56
2023-02-24T22:18:11.672Z,99333.09
2023-02-24T22:20:44.088Z,99322.81
2023-02-24T22:23:13.922Z,99316.38
2023-02-24T22:25:43.865Z,99326.78
2023-02-24T22:28:13.632Z,99322.97
2023-02-24T22:30:43.571Z,99325.03
2023-02-24T22:33:13.673Z,99329.25
2023-02-24T22:35:46.092Z,99325.59
2023-02-24T22:38:16.486Z,99326.47
2023-02-24T22:40:46.459Z,99325.72
2023-02-24T22:43:16.374Z,99330.56
2023-02-24T22:45:46.347Z,99326.47
2023-02-24T22:48:16.318Z,99335.25
2023-02-24T22:50:48.738Z,99329.69
2023-02-24T22:53:19.100Z,99322.38
2023-02-24T22:55:51.154Z,99318.72
2023-02-24T22:58:22.283Z,99309.19
2023-02-24T23:00:52.921Z,99322.53
2023-02-24T23:03:25.741Z,99316.53
2023-02-24T23:06:03.599Z,99316.06
2023-02-24T23:08:35.356Z,99319.88
2023-02-24T23:11:10.958Z,99313.16
2023-02-24T23:13:42.051Z,99303.19
2023-02-24T23:16:14.304Z,99317.09
2023-02-24T23:18:48.525Z,99313.28
2023-02-24T23:21:22.359Z,99320.75
2023-02-24T23:24:02.177Z,99307.00
2023-02-24T23:26:33.233Z,99315.34
2023-02-24T23:29:03.674Z,99312.84
2023-02-24T23:31:34.036Z,99320.63
2023-02-24T23:34:07.328Z,99319.16
2023-02-24T23:36:43.616Z,99326.47
2023-02-24T23:39:15.766Z,99329.25
2023-02-24T23:41:46.143Z,99335.13
2023-02-24T23:44:16.073Z,99335.88
2023-02-24T23:46:46.688Z,99342.59
2023-02-24T23:49:16.688Z,99339.06
2023-02-24T23:51:49.294Z,99341.56
2023-02-24T23:54:20.415Z,99339.69
2023-02-24T23:56:50.552Z,99342.75
2023-02-24T23:59:20.466Z,99351.09
